Time;durP1;ratioP1;P1;durP2;ratioP2;P2;SDS_P1;SDS_P2;PMS_P1;PMS_P2;Temp;Humidity;BMP_temperature;BMP_pressure;BME280_temperature;BME280_humidity;BME280_pressure;Samples;Min_cycle;Max_cycle;Signal;HPM_P1;HPM_P2
2022/09/11 00:00:04;;;;;;;32.13;21.50;;;;;;;;;;4994241;28;20549;-74
2022/09/11 00:02:31;;;;;;;29.60;20.67;;;;;;;;;;4993890;28;20456;-74
2022/09/11 00:04:59;;;;;;;27.30;19.87;;;;;;;;;;4994705;28;20813;-74
2022/09/11 00:07:30;;;;;;;31.30;20.53;;;;;;;;;;4998832;28;20456;-74
2022/09/11 00:09:57;;;;;;;30.70;20.70;;;;;;;;;;4994183;28;20487;-74
2022/09/11 00:12:24;;;;;;;36.00;23.33;;;;;;;;;;4996912;28;20735;-74
2022/09/11 00:14:52;;;;;;;32.43;22.07;;;;;;;;;;4997395;28;20460;-74
2022/09/11 00:17:20;;;;;;;30.60;21.17;;;;;;;;;;4998131;28;20456;-74
2022/09/11 00:19:48;;;;;;;30.37;21.30;;;;;;;;;;4998619;28;20459;-74
2022/09/11 00:22:16;;;;;;;32.03;21.03;;;;;;;;;;4996747;28;20459;-74
2022/09/11 00:24:43;;;;;;;32.83;21.50;;;;;;;;;;4997454;28;20480;-74
2022/09/11 00:27:10;;;;;;;32.03;22.87;;;;;;;;;;4996607;28;20888;-75
2022/09/11 00:29:38;;;;;;;29.13;21.73;;;;;;;;;;4995172;28;20641;-75
2022/09/11 00:32:09;;;;;;;29.80;21.83;;;;;;;;;;4999341;28;20479;-74
2022/09/11 00:34:38;;;;;;;29.20;21.93;;;;;;;;;;4996524;28;20452;-74
2022/09/11 00:37:05;;;;;;;29.57;21.10;;;;;;;;;;5002305;28;20487;-75
2022/09/11 00:39:36;;;;;;;29.50;21.17;;;;;;;;;;4999771;28;20543;-74
2022/09/11 00:42:04;;;;;;;30.33;21.67;;;;;;;;;;4997864;28;20472;-75
2022/09/11 00:44:54;;;;;;;31.63;21.43;;;;;;;;;;4990285;28;20464;-74
2022/09/11 00:47:21;;;;;;;26.83;19.60;;;;;;;;;;4997190;28;20769;-75
2022/09/11 00:49:50;;;;;;;33.20;20.67;;;;;;;;;;4996779;28;20519;-74
2022/09/11 00:52:21;;;;;;;30.87;20.43;;;;;;;;;;4994167;28;20464;-75
2022/09/11 00:54:50;;;;;;;33.50;22.63;;;;;;;;;;4986233;28;20524;-74
2022/09/11 00:57:26;;;;;;;27.57;21.13;;;;;;;;;;4986756;28;20477;-76
2022/09/11 00:59:57;;;;;;;40.17;21.10;;;;;;;;;;4978094;28;20544;-76
2022/09/11 01:02:26;;;;;;;30.60;20.30;;;;;;;;;;4992227;28;20525;-75
2022/09/11 01:04:58;;;;;;;32.17;21.50;;;;;;;;;;4992098;28;20467;-75
2022/09/11 01:07:27;;;;;;;29.67;20.40;;;;;;;;;;4996860;28;20466;-75
2022/09/11 01:09:55;;;;;;;33.27;21.57;;;;;;;;;;4997292;28;20587;-75
2022/09/11 01:12:24;;;;;;;31.07;22.10;;;;;;;;;;5090839;28;20479;-76
2022/09/11 01:14:54;;;;;;;34.60;21.53;;;;;;;;;;5097466;28;20459;-76
2022/09/11 01:17:27;;;;;;;27.13;20.13;;;;;;;;;;5095731;28;20498;-75
2022/09/11 01:20:04;;;;;;;30.97;20.87;;;;;;;;;;5089512;28;20495;-75
2022/09/11 01:22:43;;;;;;;36.37;22.50;;;;;;;;;;4985839;28;20860;-74
2022/09/11 01:25:30;;;;;;;30.47;21.60;;;;;;;;;;4977620;28;20542;-75
2022/09/11 01:27:59;;;;;;;33.57;23.70;;;;;;;;;;4977683;28;20461;-75
2022/09/11 01:30:29;;;;;;;31.20;21.20;;;;;;;;;;4976934;28;20568;-76
2022/09/11 01:33:01;;;;;;;29.13;20.87;;;;;;;;;;4981806;28;20463;-76
2022/09/11 01:35:37;;;;;;;30.63;21.73;;;;;;;;;;4984816;28;21083;-75
2022/09/11 01:38:10;;;;;;;32.10;20.43;;;;;;;;;;4977715;28;20752;-76
2022/09/11 01:40:44;;;;;;;32.20;22.70;;;;;;;;;;4992034;28;20477;-76
2022/09/11 01:43:15;;;;;;;30.73;22.63;;;;;;;;;;4996420;28;20461;-75
2022/09/11 01:45:45;;;;;;;30.23;21.70;;;;;;;;;;4992587;28;20457;-76
2022/09/11 01:48:16;;;;;;;32.27;24.00;;;;;;;;;;4978717;28;20468;-75
2022/09/11 01:50:45;;;;;;;31.07;21.57;;;;;;;;;;4996948;28;20484;-75
2022/09/11 01:53:14;;;;;;;33.33;23.47;;;;;;;;;;4994335;28;20618;-76
2022/09/11 01:55:47;;;;;;;33.50;24.60;;;;;;;;;;4992058;28;20533;-75
2022/09/11 01:58:20;;;;;;;35.63;22.57;;;;;;;;;;4977454;28;20458;-75
2022/09/11 02:00:50;;;;;;;36.17;23.63;;;;;;;;;;4977656;28;20511;-75
2022/09/11 02:03:21;;;;;;;32.40;22.70;;;;;;;;;;4977493;28;20461;-76
2022/09/11 02:05:50;;;;;;;33.13;22.20;;;;;;;;;;4977567;28;20817;-75
2022/09/11 02:08:20;;;;;;;31.40;24.07;;;;;;;;;;4977714;28;20567;-75
2022/09/11 02:10:50;;;;;;;36.90;24.23;;;;;;;;;;4995090;28;20826;-76
2022/09/11 02:13:21;;;;;;;31.93;22.50;;;;;;;;;;4996986;28;20744;-75
2022/09/11 02:15:51;;;;;;;28.23;21.33;;;;;;;;;;4996719;28;20455;-75
2022/09/11 02:18:22;;;;;;;32.73;22.53;;;;;;;;;;4996686;28;20464;-75
2022/09/11 02:20:51;;;;;;;29.23;20.87;;;;;;;;;;4995104;28;20456;-74
2022/09/11 02:23:19;;;;;;;27.47;20.60;;;;;;;;;;4995520;28;20529;-75
2022/09/11 02:25:47;;;;;;;29.47;21.67;;;;;;;;;;4995823;28;20475;-75
2022/09/11 02:28:14;;;;;;;29.37;22.10;;;;;;;;;;4995524;28;20554;-75
2022/09/11 02:30:44;;;;;;;33.90;22.30;;;;;;;;;;4995896;28;20503;-74
2022/09/11 02:33:31;;;;;;;29.17;20.70;;;;;;;;;;4994961;28;20765;-74
2022/09/11 02:36:04;;;;;;;35.60;22.27;;;;;;;;;;4998850;28;20455;-75
2022/09/11 02:38:36;;;;;;;29.20;21.60;;;;;;;;;;4994651;28;20530;-75
2022/09/11 02:41:09;;;;;;;33.43;22.23;;;;;;;;;;4995504;28;20808;-75
2022/09/11 02:43:42;;;;;;;32.87;22.80;;;;;;;;;;4995556;28;20460;-75
2022/09/11 02:46:24;;;;;;;24.60;20.40;;;;;;;;;;4995391;28;20746;-75
2022/09/11 02:49:01;;;;;;;28.60;21.53;;;;;;;;;;4995387;28;20953;-76
2022/09/11 02:51:31;;;;;;;32.87;22.07;;;;;;;;;;4996089;28;20452;-76
2022/09/11 02:54:01;;;;;;;27.33;20.67;;;;;;;;;;4999463;28;20456;-75
2022/09/11 02:56:36;;;;;;;25.50;19.50;;;;;;;;;;4995925;28;20431;-75
2022/09/11 02:59:07;;;;;;;26.00;19.83;;;;;;;;;;5000759;28;20462;-75
2022/09/11 03:01:46;;;;;;;28.23;18.30;;;;;;;;;;4995234;28;20476;-76
2022/09/11 03:04:14;;;;;;;23.43;19.27;;;;;;;;;;4994990;28;20850;-75
2022/09/11 03:06:42;;;;;;;23.00;17.67;;;;;;;;;;4994351;28;20789;-75
2022/09/11 03:09:09;;;;;;;24.30;17.83;;;;;;;;;;4995418;28;20492;-75
2022/09/11 03:11:37;;;;;;;23.57;17.80;;;;;;;;;;4995680;28;20467;-75
2022/09/11 03:14:05;;;;;;;21.83;16.70;;;;;;;;;;4995702;28;20464;-76
2022/09/11 03:16:32;;;;;;;25.20;17.47;;;;;;;;;;4996897;28;20440;-75
2022/09/11 03:19:00;;;;;;;22.80;17.90;;;;;;;;;;4994775;28;20470;-75
2022/09/11 03:21:28;;;;;;;20.23;16.20;;;;;;;;;;4995735;28;20452;-75
2022/09/11 03:23:56;;;;;;;20.20;15.70;;;;;;;;;;4995232;28;20460;-75
2022/09/11 03:26:23;;;;;;;23.03;17.60;;;;;;;;;;4995438;28;21037;-75
2022/09/11 03:28:51;;;;;;;23.00;16.43;;;;;;;;;;4994902;28;20460;-75
2022/09/11 03:31:18;;;;;;;24.43;16.90;;;;;;;;;;4995515;28;20444;-75
2022/09/11 03:33:45;;;;;;;20.40;15.53;;;;;;;;;;4994944;28;20456;-75
2022/09/11 03:36:13;;;;;;;20.40;15.60;;;;;;;;;;4993690;28;20490;-75
2022/09/11 03:38:41;;;;;;;19.30;14.63;;;;;;;;;;4995050;28;20452;-75
2022/09/11 03:41:08;;;;;;;24.40;15.00;;;;;;;;;;4996021;28;20507;-75
2022/09/11 03:43:36;;;;;;;21.87;17.30;;;;;;;;;;4995609;28;20448;-75
2022/09/11 03:46:04;;;;;;;24.63;16.57;;;;;;;;;;4997360;28;20468;-75
2022/09/11 03:48:32;;;;;;;20.63;14.87;;;;;;;;;;4998344;28;20629;-75
2022/09/11 03:50:59;;;;;;;20.13;16.27;;;;;;;;;;4997779;28;20483;-74
2022/09/11 03:53:28;;;;;;;22.87;16.40;;;;;;;;;;4998754;28;20455;-75
2022/09/11 03:55:56;;;;;;;21.00;15.47;;;;;;;;;;4998733;28;20456;-74
2022/09/11 03:58:24;;;;;;;19.97;14.63;;;;;;;;;;4997699;28;20468;-74
2022/09/11 04:00:52;;;;;;;25.10;16.20;;;;;;;;;;4998338;28;20835;-74
2022/09/11 04:03:19;;;;;;;27.47;16.97;;;;;;;;;;4997871;28;20547;-74
2022/09/11 04:05:56;;;;;;;26.17;18.17;;;;;;;;;;4998678;28;20491;-74
2022/09/11 04:08:24;;;;;;;23.13;16.27;;;;;;;;;;4996506;28;20866;-74
2022/09/11 04:10:57;;;;;;;28.17;17.47;;;;;;;;;;4995917;28;20531;-76
2022/09/11 04:13:28;;;;;;;31.33;18.50;;;;;;;;;;4996973;28;20551;-76
2022/09/11 04:15:59;;;;;;;27.60;20.00;;;;;;;;;;4996403;28;20453;-76
2022/09/11 04:18:26;;;;;;;33.67;20.67;;;;;;;;;;4996486;28;20452;-76
2022/09/11 04:20:53;;;;;;;29.43;21.20;;;;;;;;;;4996826;28;20559;-77
2022/09/11 04:23:22;;;;;;;36.40;22.30;;;;;;;;;;4997831;28;20460;-76
2022/09/11 04:25:49;;;;;;;36.07;22.97;;;;;;;;;;4997196;28;20602;-76
2022/09/11 04:28:18;;;;;;;34.80;20.33;;;;;;;;;;4997024;28;20973;-76
2022/09/11 04:30:45;;;;;;;31.40;20.43;;;;;;;;;;5000551;28;20560;-75
2022/09/11 04:33:14;;;;;;;30.40;18.67;;;;;;;;;;4997094;28;20453;-76
2022/09/11 04:35:42;;;;;;;33.53;20.27;;;;;;;;;;4997465;28;20723;-75
2022/09/11 04:38:09;;;;;;;28.10;18.60;;;;;;;;;;4996588;28;20448;-76
2022/09/11 04:40:36;;;;;;;36.63;20.17;;;;;;;;;;4998062;28;20474;-76
2022/09/11 04:43:05;;;;;;;32.83;20.03;;;;;;;;;;4997383;28;20456;-76
2022/09/11 04:45:34;;;;;;;32.43;20.97;;;;;;;;;;4996734;28;20464;-76
2022/09/11 04:48:01;;;;;;;31.60;20.40;;;;;;;;;;4997215;28;20931;-75
2022/09/11 04:50:30;;;;;;;34.20;20.60;;;;;;;;;;4996423;28;20499;-74
2022/09/11 04:53:05;;;;;;;36.63;22.80;;;;;;;;;;4996299;28;20456;-75
2022/09/11 04:55:38;;;;;;;31.73;21.23;;;;;;;;;;4995898;28;20470;-75
2022/09/11 04:58:08;;;;;;;36.27;21.10;;;;;;;;;;4995992;28;20529;-75
2022/09/11 05:00:36;;;;;;;32.67;20.97;;;;;;;;;;4995364;28;20476;-75
2022/09/11 05:03:03;;;;;;;39.87;20.23;;;;;;;;;;4996968;28;20461;-75
2022/09/11 05:05:31;;;;;;;36.03;20.10;;;;;;;;;;4996852;28;21155;-75
2022/09/11 05:07:58;;;;;;;35.00;20.10;;;;;;;;;;4996696;28;20907;-75
2022/09/11 05:10:26;;;;;;;35.27;22.20;;;;;;;;;;4992199;28;20521;-75
2022/09/11 05:12:53;;;;;;;32.50;19.87;;;;;;;;;;4997189;28;20522;-75
2022/09/11 05:15:20;;;;;;;34.07;19.53;;;;;;;;;;4995960;28;20468;-75
2022/09/11 05:17:47;;;;;;;30.53;18.77;;;;;;;;;;4990486;28;20489;-75
2022/09/11 05:20:15;;;;;;;31.57;19.03;;;;;;;;;;4980391;28;20469;-75
2022/09/11 05:22:45;;;;;;;30.67;19.13;;;;;;;;;;4977173;28;20449;-75
2022/09/11 05:25:13;;;;;;;34.80;19.10;;;;;;;;;;4975873;28;20713;-75
2022/09/11 05:27:40;;;;;;;31.73;18.57;;;;;;;;;;4976463;28;20796;-75
2022/09/11 05:30:08;;;;;;;35.43;20.17;;;;;;;;;;4977030;28;20547;-75
2022/09/11 05:32:35;;;;;;;33.50;19.43;;;;;;;;;;4977994;28;20499;-75
2022/09/11 05:35:02;;;;;;;35.30;20.03;;;;;;;;;;4978566;28;20503;-74
2022/09/11 05:37:30;;;;;;;37.37;19.63;;;;;;;;;;4995760;28;20464;-75
2022/09/11 05:39:57;;;;;;;33.13;17.80;;;;;;;;;;4978447;28;20498;-74
2022/09/11 05:42:27;;;;;;;29.10;17.80;;;;;;;;;;5028808;28;20442;-74
2022/09/11 05:44:55;;;;;;;31.27;17.70;;;;;;;;;;5008491;28;20465;-74
2022/09/11 05:47:26;;;;;;;34.80;17.97;;;;;;;;;;4985265;28;20445;-75
2022/09/11 05:49:53;;;;;;;30.40;18.87;;;;;;;;;;4994367;28;20503;-75
2022/09/11 05:52:20;;;;;;;34.40;17.57;;;;;;;;;;4982994;28;20476;-75
2022/09/11 05:54:48;;;;;;;34.83;17.77;;;;;;;;;;4994299;28;20468;-75
2022/09/11 05:57:16;;;;;;;33.17;17.53;;;;;;;;;;4995457;28;20456;-75
2022/09/11 05:59:44;;;;;;;31.90;16.40;;;;;;;;;;4988495;28;20488;-75
2022/09/11 06:02:11;;;;;;;34.00;17.90;;;;;;;;;;4994515;28;20465;-75
2022/09/11 06:04:45;;;;;;;32.47;16.83;;;;;;;;;;4990301;28;20496;-75
2022/09/11 06:07:12;;;;;;;31.97;16.53;;;;;;;;;;4993780;28;20468;-74
2022/09/11 06:09:40;;;;;;;37.10;17.67;;;;;;;;;;4991480;28;20532;-75
2022/09/11 06:12:11;;;;;;;32.43;17.40;;;;;;;;;;4996482;28;20662;-75
2022/09/11 06:14:39;;;;;;;30.47;14.40;;;;;;;;;;4999637;28;20457;-74
2022/09/11 06:17:08;;;;;;;34.67;16.17;;;;;;;;;;4997269;28;20616;-74
2022/09/11 06:19:36;;;;;;;30.60;15.50;;;;;;;;;;4995349;28;21126;-74
2022/09/11 06:22:03;;;;;;;27.63;16.73;;;;;;;;;;4995815;28;20456;-74
2022/09/11 06:24:30;;;;;;;32.97;15.60;;;;;;;;;;4994781;28;20537;-75
2022/09/11 06:26:59;;;;;;;31.83;16.67;;;;;;;;;;4994760;28;20910;-76
2022/09/11 06:29:26;;;;;;;34.87;15.77;;;;;;;;;;4995439;28;20861;-75
2022/09/11 06:31:53;;;;;;;33.50;16.40;;;;;;;;;;4995643;28;20472;-76
2022/09/11 06:34:22;;;;;;;30.67;14.77;;;;;;;;;;4995337;28;20487;-75
2022/09/11 06:36:49;;;;;;;33.03;15.27;;;;;;;;;;4994613;28;20441;-75
2022/09/11 06:39:19;;;;;;;26.17;13.90;;;;;;;;;;4993547;28;20465;-75
2022/09/11 06:41:46;;;;;;;29.00;15.27;;;;;;;;;;4976070;28;20500;-76
2022/09/11 06:44:15;;;;;;;26.07;12.27;;;;;;;;;;4976199;28;20468;-75
2022/09/11 06:46:53;;;;;;;24.10;13.03;;;;;;;;;;4977016;28;20533;-75
2022/09/11 06:49:35;;;;;;;28.50;13.67;;;;;;;;;;4979803;28;20468;-74
2022/09/11 06:52:02;;;;;;;27.10;12.40;;;;;;;;;;4983892;28;20571;-76
2022/09/11 06:54:30;;;;;;;24.53;14.43;;;;;;;;;;4989977;28;20551;-76
2022/09/11 06:56:57;;;;;;;24.77;12.87;;;;;;;;;;5010538;28;20497;-76
2022/09/11 06:59:25;;;;;;;27.33;11.40;;;;;;;;;;4991749;28;20547;-76
2022/09/11 07:01:53;;;;;;;21.10;12.30;;;;;;;;;;4994088;28;20537;-76
2022/09/11 07:04:22;;;;;;;24.07;11.93;;;;;;;;;;4997586;28;20476;-75
2022/09/11 07:06:49;;;;;;;23.63;11.93;;;;;;;;;;4995814;28;20490;-76
2022/09/11 07:09:16;;;;;;;23.07;11.47;;;;;;;;;;4994995;28;20471;-75
2022/09/11 07:11:45;;;;;;;23.07;11.87;;;;;;;;;;4996020;28;20467;-75
2022/09/11 07:14:12;;;;;;;22.53;12.33;;;;;;;;;;4991094;28;20464;-75
2022/09/11 07:16:40;;;;;;;23.33;10.90;;;;;;;;;;4994173;28;20467;-76
2022/09/11 07:19:08;;;;;;;26.33;12.40;;;;;;;;;;4992480;28;20501;-76
2022/09/11 07:21:36;;;;;;;19.60;11.20;;;;;;;;;;5056474;28;20466;-75
2022/09/11 07:24:03;;;;;;;24.67;11.97;;;;;;;;;;5064907;28;20462;-75
2022/09/11 07:26:30;;;;;;;17.50;9.87;;;;;;;;;;5038032;28;20463;-75
2022/09/11 07:28:58;;;;;;;20.87;11.30;;;;;;;;;;5096939;28;20462;-75
2022/09/11 07:31:28;;;;;;;19.83;10.37;;;;;;;;;;5084593;28;20534;-76
2022/09/11 07:33:56;;;;;;;17.07;9.97;;;;;;;;;;5091871;28;20455;-75
2022/09/11 07:36:25;;;;;;;18.17;9.80;;;;;;;;;;4995377;28;20471;-74
2022/09/11 07:38:54;;;;;;;22.37;12.30;;;;;;;;;;5024933;28;20458;-75
2022/09/11 07:41:22;;;;;;;20.60;10.50;;;;;;;;;;5006397;28;20982;-75
2022/09/11 07:43:53;;;;;;;14.63;8.67;;;;;;;;;;4995477;28;20506;-75
2022/09/11 07:46:21;;;;;;;12.90;8.23;;;;;;;;;;4995593;28;20468;-76
2022/09/11 07:48:48;;;;;;;13.30;8.37;;;;;;;;;;4998498;28;20452;-74
2022/09/11 07:51:17;;;;;;;10.40;7.40;;;;;;;;;;4991025;28;20574;-75
2022/09/11 07:53:53;;;;;;;12.40;6.83;;;;;;;;;;4979970;28;20495;-75
2022/09/11 07:56:22;;;;;;;13.03;7.67;;;;;;;;;;5068892;28;20521;-73
2022/09/11 07:58:53;;;;;;;9.53;6.70;;;;;;;;;;5003318;28;20453;-75
2022/09/11 08:01:21;;;;;;;12.43;7.80;;;;;;;;;;4998450;28;20550;-74
2022/09/11 08:03:49;;;;;;;12.77;6.70;;;;;;;;;;5044104;28;20471;-76
2022/09/11 08:06:18;;;;;;;12.20;7.30;;;;;;;;;;4994639;28;20555;-76
2022/09/11 08:08:47;;;;;;;10.13;6.03;;;;;;;;;;4993579;28;20468;-76
2022/09/11 08:11:20;;;;;;;13.60;6.60;;;;;;;;;;4997314;28;20503;-75
2022/09/11 08:13:49;;;;;;;12.00;5.87;;;;;;;;;;4990290;28;20456;-75
2022/09/11 08:16:17;;;;;;;12.50;6.47;;;;;;;;;;5092598;28;20471;-75
2022/09/11 08:18:44;;;;;;;6.57;5.33;;;;;;;;;;5063928;28;20784;-77
2022/09/11 08:21:12;;;;;;;7.70;5.70;;;;;;;;;;4991277;28;20978;-76
2022/09/11 08:23:43;;;;;;;8.87;5.93;;;;;;;;;;4976873;28;20931;-74
2022/09/11 08:26:15;;;;;;;6.80;5.27;;;;;;;;;;4976750;28;20461;-76
2022/09/11 08:28:49;;;;;;;6.53;5.10;;;;;;;;;;4984263;28;20555;-75
2022/09/11 08:31:24;;;;;;;6.90;5.17;;;;;;;;;;5042897;28;20487;-76
2022/09/11 08:33:53;;;;;;;7.77;5.30;;;;;;;;;;5094962;28;20447;-76
2022/09/11 08:36:22;;;;;;;6.77;5.17;;;;;;;;;;4999100;28;20753;-76
2022/09/11 08:38:50;;;;;;;7.43;5.70;;;;;;;;;;4990942;28;20475;-74
2022/09/11 08:41:28;;;;;;;6.70;4.80;;;;;;;;;;4993871;28;20747;-75
2022/09/11 08:44:01;;;;;;;7.90;5.20;;;;;;;;;;4993793;28;20460;-74
2022/09/11 08:46:31;;;;;;;6.07;5.00;;;;;;;;;;4993544;28;20452;-75
2022/09/11 08:49:03;;;;;;;7.80;5.67;;;;;;;;;;4992883;28;20928;-74
2022/09/11 08:51:31;;;;;;;5.83;4.40;;;;;;;;;;5044507;28;20553;-75
2022/09/11 08:54:03;;;;;;;7.07;5.40;;;;;;;;;;5093768;28;20470;-76
2022/09/11 08:56:33;;;;;;;8.73;5.87;;;;;;;;;;5092269;28;20455;-76
2022/09/11 08:59:17;;;;;;;7.13;5.37;;;;;;;;;;5005240;28;20533;-75
2022/09/11 09:01:54;;;;;;;8.77;5.80;;;;;;;;;;5046228;28;20562;-75
2022/09/11 09:04:31;;;;;;;9.67;6.30;;;;;;;;;;5095976;28;20935;-76
2022/09/11 09:07:05;;;;;;;7.80;5.57;;;;;;;;;;5025678;28;20479;-75
2022/09/11 09:09:39;;;;;;;9.20;6.27;;;;;;;;;;5034659;28;20487;-76
2022/09/11 09:12:14;;;;;;;10.20;6.50;;;;;;;;;;5029913;28;20464;-76
2022/09/11 09:15:02;;;;;;;10.90;6.00;;;;;;;;;;4994843;28;21057;-75
2022/09/11 09:17:33;;;;;;;9.00;6.70;;;;;;;;;;4970021;28;20468;-75
2022/09/11 09:20:03;;;;;;;7.70;5.60;;;;;;;;;;4992115;28;20472;-76
2022/09/11 09:22:37;;;;;;;7.40;5.27;;;;;;;;;;4993558;28;20468;-75
2022/09/11 09:25:08;;;;;;;7.10;5.63;;;;;;;;;;5074270;28;20508;-76
2022/09/11 09:27:36;;;;;;;7.83;5.20;;;;;;;;;;5044114;28;20476;-76
2022/09/11 09:30:15;;;;;;;8.17;5.83;;;;;;;;;;4997447;28;20491;-75
2022/09/11 09:32:50;;;;;;;7.73;5.60;;;;;;;;;;5054379;28;20464;-75
2022/09/11 09:35:28;;;;;;;9.37;5.77;;;;;;;;;;4994650;28;20475;-74
2022/09/11 09:37:56;;;;;;;8.63;5.90;;;;;;;;;;4988884;28;20448;-75
2022/09/11 09:40:25;;;;;;;8.27;6.03;;;;;;;;;;4991756;28;20472;-75
2022/09/11 09:42:59;;;;;;;7.67;5.63;;;;;;;;;;4992848;28;20765;-74
2022/09/11 09:45:34;;;;;;;7.13;6.10;;;;;;;;;;4978452;28;20959;-74
2022/09/11 09:48:02;;;;;;;7.00;5.43;;;;;;;;;;4998296;28;20529;-74
2022/09/11 09:50:32;;;;;;;7.87;5.73;;;;;;;;;;4993526;28;21228;-74
2022/09/11 09:53:03;;;;;;;8.00;6.00;;;;;;;;;;5050136;28;20464;-74
2022/09/11 09:55:39;;;;;;;11.07;7.70;;;;;;;;;;5092858;28;20448;-75
2022/09/11 09:58:08;;;;;;;9.10;8.00;;;;;;;;;;4975311;28;20545;-76
2022/09/11 10:00:44;;;;;;;7.73;6.93;;;;;;;;;;5040296;28;20469;-76
2022/09/11 10:03:23;;;;;;;8.40;6.40;;;;;;;;;;5005135;28;20538;-76
2022/09/11 10:06:08;;;;;;;7.13;6.43;;;;;;;;;;4995713;28;21050;-76
2022/09/11 10:08:37;;;;;;;7.20;5.70;;;;;;;;;;4997933;28;20702;-77
2022/09/11 10:11:14;;;;;;;6.50;5.90;;;;;;;;;;4999595;28;20519;-74
2022/09/11 10:13:42;;;;;;;7.13;6.43;;;;;;;;;;5011896;28;20962;-76
2022/09/11 10:16:19;;;;;;;6.47;5.43;;;;;;;;;;4980575;28;20763;-75
2022/09/11 10:18:50;;;;;;;4.93;4.43;;;;;;;;;;4975008;28;20471;-75
2022/09/11 10:21:22;;;;;;;6.50;5.07;;;;;;;;;;4977315;28;20556;-77
2022/09/11 10:23:53;;;;;;;8.20;5.13;;;;;;;;;;4993163;28;20966;-75
2022/09/11 10:26:28;;;;;;;6.63;5.17;;;;;;;;;;4995548;28;20456;-75
2022/09/11 10:28:59;;;;;;;7.47;4.90;;;;;;;;;;4985828;28;20464;-76
2022/09/11 10:31:29;;;;;;;6.30;5.37;;;;;;;;;;4976682;28;20497;-76
2022/09/11 10:33:57;;;;;;;4.87;4.20;;;;;;;;;;4976269;28;20459;-77
2022/09/11 10:36:26;;;;;;;7.20;3.10;;;;;;;;;;4975559;28;20508;-77
2022/09/11 10:38:57;;;;;;;3.37;2.97;;;;;;;;;;4978434;28;20480;-77
2022/09/11 10:41:32;;;;;;;3.40;2.87;;;;;;;;;;4993136;28;20480;-76
2022/09/11 10:44:01;;;;;;;4.00;3.60;;;;;;;;;;4992888;28;20467;-77
2022/09/11 10:47:05;;;;;;;3.03;2.60;;;;;;;;;;4982036;28;20453;-77
2022/09/11 10:49:34;;;;;;;5.00;3.40;;;;;;;;;;4993662;28;20455;-77
2022/09/11 10:52:16;;;;;;;4.47;3.73;;;;;;;;;;4991520;28;20878;-77
2022/09/11 10:54:53;;;;;;;4.60;3.50;;;;;;;;;;4994767;28;20460;-77
2022/09/11 10:57:32;;;;;;;5.37;2.93;;;;;;;;;;4991988;28;20459;-77
2022/09/11 11:00:06;;;;;;;2.67;2.03;;;;;;;;;;4977144;28;20461;-77
2022/09/11 11:02:34;;;;;;;5.10;2.37;;;;;;;;;;4993514;28;20478;-77
2022/09/11 11:05:15;;;;;;;2.93;2.30;;;;;;;;;;4989724;28;20472;-78
2022/09/11 11:07:58;;;;;;;4.10;2.10;;;;;;;;;;5021535;28;20987;-77
2022/09/11 11:10:33;;;;;;;2.80;2.20;;;;;;;;;;5094511;28;20483;-77
2022/09/11 11:13:14;;;;;;;3.13;2.20;;;;;;;;;;5093022;28;20542;-76
2022/09/11 11:15:49;;;;;;;4.23;1.90;;;;;;;;;;5075204;28;20956;-78
2022/09/11 11:18:31;;;;;;;3.20;2.50;;;;;;;;;;5044474;28;20633;-77
2022/09/11 11:21:12;;;;;;;3.93;2.73;;;;;;;;;;5039508;28;20599;-77
2022/09/11 11:23:52;;;;;;;4.57;2.63;;;;;;;;;;4987628;28;20456;-77
2022/09/11 11:26:30;;;;;;;2.90;2.43;;;;;;;;;;4990294;28;20463;-77
2022/09/11 11:29:15;;;;;;;3.30;2.33;;;;;;;;;;4993498;28;20463;-75
2022/09/11 11:31:51;;;;;;;6.67;3.50;;;;;;;;;;5026023;28;20483;-77
2022/09/11 11:34:27;;;;;;;2.70;1.90;;;;;;;;;;5027269;28;20904;-76
2022/09/11 11:37:10;;;;;;;2.83;2.23;;;;;;;;;;4995667;28;20468;-77
2022/09/11 11:39:53;;;;;;;2.90;2.00;;;;;;;;;;4992362;28;20902;-78
2022/09/11 11:42:31;;;;;;;3.03;2.33;;;;;;;;;;4996874;28;20486;-78
2022/09/11 11:45:04;;;;;;;3.90;2.63;;;;;;;;;;4996363;28;20499;-78
2022/09/11 11:47:37;;;;;;;7.10;3.30;;;;;;;;;;5018691;28;20469;-77
2022/09/11 11:50:08;;;;;;;3.80;2.10;;;;;;;;;;4998835;28;20492;-77
2022/09/11 11:52:43;;;;;;;3.33;1.97;;;;;;;;;;4997874;28;20472;-76
2022/09/11 11:55:19;;;;;;;3.50;2.47;;;;;;;;;;5031317;28;20473;-77
2022/09/11 11:57:50;;;;;;;2.17;1.27;;;;;;;;;;4997256;28;21133;-77
2022/09/11 12:00:21;;;;;;;2.77;1.67;;;;;;;;;;4991736;28;20456;-77
2022/09/11 12:03:08;;;;;;;5.60;2.00;;;;;;;;;;4994645;28;20559;-78
2022/09/11 12:05:44;;;;;;;2.77;1.90;;;;;;;;;;4982422;28;20642;-77
2022/09/11 12:08:13;;;;;;;5.73;1.93;;;;;;;;;;4997574;28;20468;-77
2022/09/11 12:10:44;;;;;;;3.10;2.40;;;;;;;;;;5008047;28;20494;-77
2022/09/11 12:13:14;;;;;;;3.00;1.87;;;;;;;;;;4998568;28;20469;-78
2022/09/11 12:15:57;;;;;;;3.40;1.93;;;;;;;;;;5053624;28;20818;-77
2022/09/11 12:18:28;;;;;;;3.90;3.50;;;;;;;;;;4982695;28;20449;-77
2022/09/11 12:21:20;;;;;;;2.50;1.80;;;;;;;;;;4998108;28;20890;-77
2022/09/11 12:24:09;;;;;;;2.87;1.83;;;;;;;;;;5004972;28;20456;-78
2022/09/11 12:26:36;;;;;;;2.30;1.63;;;;;;;;;;5013631;28;20468;-77
2022/09/11 12:29:29;;;;;;;4.07;2.03;;;;;;;;;;5071024;28;20529;-77
2022/09/11 12:32:15;;;;;;;2.13;1.33;;;;;;;;;;4988397;28;20519;-78
2022/09/11 12:35:06;;;;;;;4.27;2.27;;;;;;;;;;4998296;28;20892;-78
2022/09/11 12:40:41;;;;;;;2.80;1.60;;;;;;;;;;4981711;28;20714;-78
2022/09/11 12:43:28;;;;;;;2.90;1.53;;;;;;;;;;4980795;28;20469;-78
2022/09/11 12:45:56;;;;;;;3.40;1.60;;;;;;;;;;4991436;28;20882;-77
2022/09/11 12:48:37;;;;;;;2.80;1.77;;;;;;;;;;5043017;28;20968;-78
2022/09/11 12:51:06;;;;;;;2.00;1.20;;;;;;;;;;5096505;28;20491;-77
2022/09/11 12:53:41;;;;;;;2.30;1.50;;;;;;;;;;5067661;28;20526;-77
2022/09/11 12:56:08;;;;;;;2.63;1.60;;;;;;;;;;4978242;28;20570;-77
2022/09/11 12:58:38;;;;;;;3.40;2.03;;;;;;;;;;4995099;28;20460;-77
2022/09/11 13:01:29;;;;;;;2.20;1.33;;;;;;;;;;4993749;28;20469;-76
2022/09/11 13:03:58;;;;;;;2.30;1.50;;;;;;;;;;4994289;28;20453;-76
2022/09/11 13:06:37;;;;;;;2.20;1.33;;;;;;;;;;4994818;28;20559;-77
2022/09/11 13:09:05;;;;;;;2.00;1.37;;;;;;;;;;4995847;28;20457;-77
2022/09/11 13:11:59;;;;;;;2.93;1.57;;;;;;;;;;4998750;28;20502;-77
2022/09/11 13:14:57;;;;;;;1.90;1.40;;;;;;;;;;4995093;28;20444;-76
2022/09/11 13:17:27;;;;;;;2.20;1.50;;;;;;;;;;4955946;28;20559;-77
2022/09/11 13:20:12;;;;;;;1.80;1.00;;;;;;;;;;4998017;28;20462;-77
2022/09/11 13:22:43;;;;;;;4.07;1.50;;;;;;;;;;4997863;28;20459;-76
2022/09/11 13:25:12;;;;;;;2.00;1.40;;;;;;;;;;4995607;28;20520;-77
2022/09/11 13:27:40;;;;;;;1.63;0.87;;;;;;;;;;4995733;28;20464;-77
2022/09/11 13:30:18;;;;;;;1.70;1.00;;;;;;;;;;4995174;28;20522;-79
2022/09/11 13:32:51;;;;;;;1.80;0.90;;;;;;;;;;4997519;28;20471;-78
2022/09/11 13:35:25;;;;;;;1.90;1.00;;;;;;;;;;4989896;28;20487;-75
2022/09/11 13:38:20;;;;;;;2.03;1.23;;;;;;;;;;4976116;28;20448;-77
2022/09/11 13:40:55;;;;;;;2.70;1.00;;;;;;;;;;4980909;28;20449;-77
2022/09/11 13:43:28;;;;;;;2.37;1.20;;;;;;;;;;4976516;28;20455;-76
2022/09/11 13:46:20;;;;;;;2.70;1.33;;;;;;;;;;4976474;28;20471;-76
2022/09/11 13:48:48;;;;;;;2.10;1.20;;;;;;;;;;4997903;28;20440;-77
2022/09/11 13:51:20;;;;;;;1.80;0.90;;;;;;;;;;4999482;28;20921;-78
2022/09/11 13:53:57;;;;;;;1.70;0.90;;;;;;;;;;5000154;28;20695;-76
2022/09/11 13:57:19;;;;;;;2.13;1.03;;;;;;;;;;4995552;28;20549;-78
2022/09/11 14:00:21;;;;;;;1.80;0.90;;;;;;;;;;4978239;28;20473;-77
2022/09/11 14:02:54;;;;;;;2.30;1.20;;;;;;;;;;4989062;28;20478;-76
2022/09/11 14:05:25;;;;;;;1.77;0.90;;;;;;;;;;4994164;28;20899;-75
2022/09/11 14:07:58;;;;;;;2.70;1.03;;;;;;;;;;4995175;28;20456;-75
2022/09/11 14:10:28;;;;;;;1.83;0.93;;;;;;;;;;4999456;28;20587;-74
2022/09/11 14:12:59;;;;;;;1.60;0.80;;;;;;;;;;5000148;28;20535;-74
2022/09/11 14:15:30;;;;;;;1.70;0.80;;;;;;;;;;4994170;28;20463;-74
2022/09/11 14:20:58;;;;;;;1.97;1.00;;;;;;;;;;4980452;28;20471;-75
2022/09/11 14:23:37;;;;;;;2.00;1.10;;;;;;;;;;4991464;28;20468;-77
2022/09/11 14:26:11;;;;;;;2.00;1.33;;;;;;;;;;4994722;28;20460;-76
2022/09/11 14:28:44;;;;;;;1.90;1.00;;;;;;;;;;4981973;28;21061;-77
2022/09/11 14:31:13;;;;;;;1.80;0.90;;;;;;;;;;4977071;28;20852;-76
2022/09/11 14:33:41;;;;;;;1.50;0.80;;;;;;;;;;4976000;28;20457;-75
2022/09/11 14:36:21;;;;;;;2.03;0.90;;;;;;;;;;4996217;28;20521;-76
2022/09/11 14:39:00;;;;;;;1.77;0.80;;;;;;;;;;4981842;28;20487;-74
2022/09/11 14:41:29;;;;;;;1.67;1.10;;;;;;;;;;4986815;28;20932;-74
2022/09/11 14:44:01;;;;;;;2.40;0.80;;;;;;;;;;5012506;28;20524;-74
2022/09/11 14:46:30;;;;;;;1.57;0.73;;;;;;;;;;5050492;28;20586;-75
2022/09/11 14:49:01;;;;;;;1.50;0.80;;;;;;;;;;4974071;28;20878;-74
2022/09/11 14:51:32;;;;;;;2.50;1.00;;;;;;;;;;4984665;28;20488;-74
2022/09/11 14:54:05;;;;;;;2.53;0.80;;;;;;;;;;5016506;28;20474;-77
2022/09/11 14:56:32;;;;;;;2.13;1.00;;;;;;;;;;5090372;28;20486;-75
2022/09/11 14:59:02;;;;;;;2.60;1.00;;;;;;;;;;5016254;28;20464;-76
2022/09/11 15:01:34;;;;;;;1.60;0.80;;;;;;;;;;4990012;28;20562;-76